sensor_id;sensor_type;location;lat;lon;timestamp;P1;durP1;ratioP1;P2;durP2;ratioP2
51636;SDS011;37713;53.254;6.460;2022-12-18T00:01:31;82.00;;;26.83;;
51636;SDS011;37713;53.254;6.460;2022-12-18T00:03:58;89.25;;;27.35;;
51636;SDS011;37713;53.254;6.460;2022-12-18T00:06:25;86.75;;;26.60;;
51636;SDS011;37713;53.254;6.460;2022-12-18T00:08:53;85.13;;;27.10;;
51636;SDS011;37713;53.254;6.460;2022-12-18T00:11:20;96.95;;;28.88;;
51636;SDS011;37713;53.254;6.460;2022-12-18T00:13:49;76.68;;;26.50;;
51636;SDS011;37713;53.254;6.460;2022-12-18T00:16:16;83.60;;;27.20;;
51636;SDS011;37713;53.254;6.460;2022-12-18T00:18:45;81.85;;;27.08;;
51636;SDS011;37713;53.254;6.460;2022-12-18T00:21:12;86.15;;;28.35;;
51636;SDS011;37713;53.254;6.460;2022-12-18T00:23:39;84.57;;;26.73;;
51636;SDS011;37713;53.254;6.460;2022-12-18T00:26:10;91.40;;;26.10;;
51636;SDS011;37713;53.254;6.460;2022-12-18T00:28:37;84.05;;;27.10;;
51636;SDS011;37713;53.254;6.460;2022-12-18T00:31:05;86.65;;;28.88;;
51636;SDS011;37713;53.254;6.460;2022-12-18T00:36:05;80.03;;;24.38;;
51636;SDS011;37713;53.254;6.460;2022-12-18T00:38:32;81.72;;;25.52;;
51636;SDS011;37713;53.254;6.460;2022-12-18T00:40:58;82.05;;;27.80;;
51636;SDS011;37713;53.254;6.460;2022-12-18T00:43:24;90.65;;;27.23;;
51636;SDS011;37713;53.254;6.460;2022-12-18T00:45:50;86.97;;;26.75;;
51636;SDS011;37713;53.254;6.460;2022-12-18T00:48:15;82.93;;;27.27;;
51636;SDS011;37713;53.254;6.460;2022-12-18T00:50:41;87.57;;;27.23;;
51636;SDS011;37713;53.254;6.460;2022-12-18T00:53:07;80.63;;;25.05;;
51636;SDS011;37713;53.254;6.460;2022-12-18T00:55:34;85.60;;;27.50;;
51636;SDS011;37713;53.254;6.460;2022-12-18T00:58:00;88.57;;;28.15;;
51636;SDS011;37713;53.254;6.460;2022-12-18T01:00:25;85.80;;;28.10;;
51636;SDS011;37713;53.254;6.460;2022-12-18T01:02:51;89.78;;;26.63;;
51636;SDS011;37713;53.254;6.460;2022-12-18T01:05:17;84.60;;;27.50;;
51636;SDS011;37713;53.254;6.460;2022-12-18T01:07:43;82.53;;;27.48;;
51636;SDS011;37713;53.254;6.460;2022-12-18T01:10:09;84.78;;;26.92;;
51636;SDS011;37713;53.254;6.460;2022-12-18T01:12:37;83.70;;;27.90;;
51636;SDS011;37713;53.254;6.460;2022-12-18T01:15:02;79.32;;;25.92;;
51636;SDS011;37713;53.254;6.460;2022-12-18T01:17:29;78.13;;;25.65;;
51636;SDS011;37713;53.254;6.460;2022-12-18T01:19:54;83.60;;;28.05;;
51636;SDS011;37713;53.254;6.460;2022-12-18T01:22:20;85.70;;;26.52;;
51636;SDS011;37713;53.254;6.460;2022-12-18T01:24:46;78.05;;;25.60;;
51636;SDS011;37713;53.254;6.460;2022-12-18T01:27:12;79.05;;;26.10;;
51636;SDS011;37713;53.254;6.460;2022-12-18T01:29:37;83.38;;;25.40;;
51636;SDS011;37713;53.254;6.460;2022-12-18T01:32:03;86.15;;;25.85;;
51636;SDS011;37713;53.254;6.460;2022-12-18T01:34:29;83.43;;;25.42;;
51636;SDS011;37713;53.254;6.460;2022-12-18T01:36:55;83.45;;;27.63;;
51636;SDS011;37713;53.254;6.460;2022-12-18T01:39:20;83.15;;;26.70;;
51636;SDS011;37713;53.254;6.460;2022-12-18T01:41:47;79.05;;;25.55;;
51636;SDS011;37713;53.254;6.460;2022-12-18T01:47:18;79.43;;;26.23;;
51636;SDS011;37713;53.254;6.460;2022-12-18T01:50:13;77.00;;;25.73;;
51636;SDS011;37713;53.254;6.460;2022-12-18T01:55:13;70.82;;;23.15;;
51636;SDS011;37713;53.254;6.460;2022-12-18T01:57:42;75.25;;;23.67;;
51636;SDS011;37713;53.254;6.460;2022-12-18T02:00:09;76.53;;;24.45;;
51636;SDS011;37713;53.254;6.460;2022-12-18T02:02:39;75.20;;;25.17;;
51636;SDS011;37713;53.254;6.460;2022-12-18T02:05:06;73.95;;;24.23;;
51636;SDS011;37713;53.254;6.460;2022-12-18T02:12:42;73.65;;;24.85;;
51636;SDS011;37713;53.254;6.460;2022-12-18T02:15:25;73.93;;;24.55;;
51636;SDS011;37713;53.254;6.460;2022-12-18T02:18:17;75.55;;;24.55;;
51636;SDS011;37713;53.254;6.460;2022-12-18T02:20:51;69.65;;;22.83;;
51636;SDS011;37713;53.254;6.460;2022-12-18T02:23:26;63.67;;;23.92;;
51636;SDS011;37713;53.254;6.460;2022-12-18T02:26:15;70.90;;;23.10;;
51636;SDS011;37713;53.254;6.460;2022-12-18T02:31:29;71.95;;;24.38;;
51636;SDS011;37713;53.254;6.460;2022-12-18T02:34:01;68.53;;;23.58;;
51636;SDS011;37713;53.254;6.460;2022-12-18T02:36:29;71.32;;;23.75;;
51636;SDS011;37713;53.254;6.460;2022-12-18T02:38:58;77.32;;;25.58;;
51636;SDS011;37713;53.254;6.460;2022-12-18T02:41:26;78.85;;;25.05;;
51636;SDS011;37713;53.254;6.460;2022-12-18T02:43:55;67.45;;;22.67;;
51636;SDS011;37713;53.254;6.460;2022-12-18T02:46:27;77.85;;;24.77;;
51636;SDS011;37713;53.254;6.460;2022-12-18T02:49:09;76.78;;;23.20;;
51636;SDS011;37713;53.254;6.460;2022-12-18T02:51:59;77.65;;;25.85;;
51636;SDS011;37713;53.254;6.460;2022-12-18T02:54:49;75.95;;;24.40;;
51636;SDS011;37713;53.254;6.460;2022-12-18T02:57:40;72.95;;;22.33;;
51636;SDS011;37713;53.254;6.460;2022-12-18T03:00:23;73.15;;;23.33;;
51636;SDS011;37713;53.254;6.460;2022-12-18T03:05:52;69.00;;;23.85;;
51636;SDS011;37713;53.254;6.460;2022-12-18T03:08:23;70.43;;;22.63;;
51636;SDS011;37713;53.254;6.460;2022-12-18T03:10:54;67.63;;;22.40;;
51636;SDS011;37713;53.254;6.460;2022-12-18T03:13:33;70.30;;;23.75;;
51636;SDS011;37713;53.254;6.460;2022-12-18T03:16:17;72.75;;;22.35;;
51636;SDS011;37713;53.254;6.460;2022-12-18T03:18:56;73.97;;;22.92;;
51636;SDS011;37713;53.254;6.460;2022-12-18T03:21:28;72.32;;;23.58;;
51636;SDS011;37713;53.254;6.460;2022-12-18T03:24:01;72.78;;;23.85;;
51636;SDS011;37713;53.254;6.460;2022-12-18T03:26:31;69.80;;;23.20;;
51636;SDS011;37713;53.254;6.460;2022-12-18T03:29:03;71.97;;;23.80;;
51636;SDS011;37713;53.254;6.460;2022-12-18T03:31:35;75.53;;;24.48;;
51636;SDS011;37713;53.254;6.460;2022-12-18T03:34:05;77.60;;;26.45;;
51636;SDS011;37713;53.254;6.460;2022-12-18T03:36:38;78.75;;;25.00;;
51636;SDS011;37713;53.254;6.460;2022-12-18T03:39:04;81.97;;;25.70;;
51636;SDS011;37713;53.254;6.460;2022-12-18T03:44:57;73.07;;;23.00;;
51636;SDS011;37713;53.254;6.460;2022-12-18T03:50:34;84.93;;;25.02;;
51636;SDS011;37713;53.254;6.460;2022-12-18T03:55:50;73.03;;;24.60;;
51636;SDS011;37713;53.254;6.460;2022-12-18T03:58:19;84.50;;;25.92;;
51636;SDS011;37713;53.254;6.460;2022-12-18T04:00:48;74.95;;;25.33;;
51636;SDS011;37713;53.254;6.460;2022-12-18T04:03:16;75.88;;;25.15;;
51636;SDS011;37713;53.254;6.460;2022-12-18T04:05:44;79.53;;;24.77;;
51636;SDS011;37713;53.254;6.460;2022-12-18T04:08:12;78.28;;;25.13;;
51636;SDS011;37713;53.254;6.460;2022-12-18T04:10:38;83.32;;;26.25;;
51636;SDS011;37713;53.254;6.460;2022-12-18T04:13:04;82.07;;;26.23;;
51636;SDS011;37713;53.254;6.460;2022-12-18T04:15:29;81.20;;;27.45;;
51636;SDS011;37713;53.254;6.460;2022-12-18T04:17:59;81.22;;;27.73;;
51636;SDS011;37713;53.254;6.460;2022-12-18T04:20:25;76.90;;;25.60;;
51636;SDS011;37713;53.254;6.460;2022-12-18T04:22:50;80.53;;;25.35;;
51636;SDS011;37713;53.254;6.460;2022-12-18T04:25:16;86.25;;;27.10;;
51636;SDS011;37713;53.254;6.460;2022-12-18T04:27:42;82.90;;;28.60;;
51636;SDS011;37713;53.254;6.460;2022-12-18T04:30:08;78.50;;;25.58;;
51636;SDS011;37713;53.254;6.460;2022-12-18T04:32:34;72.00;;;25.15;;
51636;SDS011;37713;53.254;6.460;2022-12-18T04:35:00;79.90;;;25.80;;
51636;SDS011;37713;53.254;6.460;2022-12-18T04:37:26;74.10;;;26.27;;
51636;SDS011;37713;53.254;6.460;2022-12-18T04:39:53;78.07;;;26.73;;
51636;SDS011;37713;53.254;6.460;2022-12-18T04:42:19;76.20;;;25.88;;
51636;SDS011;37713;53.254;6.460;2022-12-18T04:44:44;81.43;;;25.67;;
51636;SDS011;37713;53.254;6.460;2022-12-18T04:47:10;73.75;;;25.67;;
51636;SDS011;37713;53.254;6.460;2022-12-18T04:49:36;76.78;;;26.75;;
51636;SDS011;37713;53.254;6.460;2022-12-18T04:52:01;79.00;;;25.52;;
51636;SDS011;37713;53.254;6.460;2022-12-18T04:54:27;73.65;;;26.25;;
51636;SDS011;37713;53.254;6.460;2022-12-18T04:56:53;75.40;;;25.80;;
51636;SDS011;37713;53.254;6.460;2022-12-18T04:59:19;75.75;;;24.63;;
51636;SDS011;37713;53.254;6.460;2022-12-18T05:01:45;73.97;;;25.33;;
51636;SDS011;37713;53.254;6.460;2022-12-18T05:04:11;75.85;;;25.50;;
51636;SDS011;37713;53.254;6.460;2022-12-18T05:06:36;75.28;;;27.25;;
51636;SDS011;37713;53.254;6.460;2022-12-18T05:09:02;73.20;;;24.50;;
51636;SDS011;37713;53.254;6.460;2022-12-18T05:11:28;67.18;;;23.05;;
51636;SDS011;37713;53.254;6.460;2022-12-18T05:13:53;74.07;;;25.48;;
51636;SDS011;37713;53.254;6.460;2022-12-18T05:16:19;78.47;;;24.27;;
51636;SDS011;37713;53.254;6.460;2022-12-18T05:18:45;78.95;;;25.92;;
51636;SDS011;37713;53.254;6.460;2022-12-18T05:21:10;68.68;;;23.27;;
51636;SDS011;37713;53.254;6.460;2022-12-18T05:23:36;74.35;;;23.20;;
51636;SDS011;37713;53.254;6.460;2022-12-18T05:26:03;74.88;;;24.83;;
51636;SDS011;37713;53.254;6.460;2022-12-18T05:28:30;77.13;;;23.33;;
51636;SDS011;37713;53.254;6.460;2022-12-18T05:30:58;76.07;;;25.75;;
51636;SDS011;37713;53.254;6.460;2022-12-18T05:33:26;73.07;;;24.73;;
51636;SDS011;37713;53.254;6.460;2022-12-18T05:35:56;75.00;;;25.13;;
51636;SDS011;37713;53.254;6.460;2022-12-18T05:38:24;70.63;;;24.63;;
51636;SDS011;37713;53.254;6.460;2022-12-18T05:40:51;73.13;;;24.73;;
51636;SDS011;37713;53.254;6.460;2022-12-18T05:43:18;73.53;;;24.63;;
51636;SDS011;37713;53.254;6.460;2022-12-18T05:45:45;83.93;;;25.85;;
51636;SDS011;37713;53.254;6.460;2022-12-18T05:48:10;73.45;;;23.85;;
51636;SDS011;37713;53.254;6.460;2022-12-18T05:50:37;77.00;;;24.00;;
51636;SDS011;37713;53.254;6.460;2022-12-18T05:53:04;74.13;;;23.60;;
51636;SDS011;37713;53.254;6.460;2022-12-18T05:55:34;70.03;;;24.80;;
51636;SDS011;37713;53.254;6.460;2022-12-18T06:00:26;67.03;;;23.10;;
51636;SDS011;37713;53.254;6.460;2022-12-18T06:02:52;67.70;;;23.23;;
51636;SDS011;37713;53.254;6.460;2022-12-18T06:05:17;66.97;;;23.40;;
51636;SDS011;37713;53.254;6.460;2022-12-18T06:07:43;72.53;;;23.42;;
51636;SDS011;37713;53.254;6.460;2022-12-18T06:10:09;67.90;;;23.30;;
51636;SDS011;37713;53.254;6.460;2022-12-18T06:12:35;64.63;;;25.45;;
51636;SDS011;37713;53.254;6.460;2022-12-18T06:15:01;66.60;;;23.23;;
51636;SDS011;37713;53.254;6.460;2022-12-18T06:17:31;75.60;;;23.30;;
51636;SDS011;37713;53.254;6.460;2022-12-18T06:19:58;70.82;;;23.38;;
51636;SDS011;37713;53.254;6.460;2022-12-18T06:22:24;72.53;;;24.30;;
51636;SDS011;37713;53.254;6.460;2022-12-18T06:24:51;72.60;;;24.67;;
51636;SDS011;37713;53.254;6.460;2022-12-18T06:27:16;72.75;;;24.88;;
51636;SDS011;37713;53.254;6.460;2022-12-18T06:29:42;72.40;;;22.65;;
51636;SDS011;37713;53.254;6.460;2022-12-18T06:32:08;68.68;;;22.70;;
51636;SDS011;37713;53.254;6.460;2022-12-18T06:34:34;65.65;;;22.42;;
51636;SDS011;37713;53.254;6.460;2022-12-18T06:37:02;67.05;;;22.48;;
51636;SDS011;37713;53.254;6.460;2022-12-18T06:39:27;74.65;;;23.60;;
51636;SDS011;37713;53.254;6.460;2022-12-18T06:41:53;76.00;;;23.33;;
51636;SDS011;37713;53.254;6.460;2022-12-18T06:44:19;66.80;;;22.85;;
51636;SDS011;37713;53.254;6.460;2022-12-18T06:46:45;69.53;;;22.92;;
51636;SDS011;37713;53.254;6.460;2022-12-18T06:49:11;68.13;;;21.15;;
51636;SDS011;37713;53.254;6.460;2022-12-18T06:51:37;63.50;;;22.77;;
51636;SDS011;37713;53.254;6.460;2022-12-18T06:54:03;69.88;;;23.17;;
51636;SDS011;37713;53.254;6.460;2022-12-18T06:56:29;64.68;;;23.02;;
51636;SDS011;37713;53.254;6.460;2022-12-18T06:58:55;68.60;;;22.38;;
51636;SDS011;37713;53.254;6.460;2022-12-18T07:01:21;68.13;;;22.27;;
51636;SDS011;37713;53.254;6.460;2022-12-18T07:03:51;59.35;;;21.02;;
51636;SDS011;37713;53.254;6.460;2022-12-18T07:06:18;63.90;;;22.50;;
51636;SDS011;37713;53.254;6.460;2022-12-18T07:08:45;56.88;;;20.00;;
51636;SDS011;37713;53.254;6.460;2022-12-18T07:11:12;65.90;;;21.38;;
51636;SDS011;37713;53.254;6.460;2022-12-18T07:13:38;58.05;;;20.70;;
51636;SDS011;37713;53.254;6.460;2022-12-18T07:16:08;57.70;;;21.67;;
51636;SDS011;37713;53.254;6.460;2022-12-18T07:18:35;55.78;;;20.13;;
51636;SDS011;37713;53.254;6.460;2022-12-18T07:21:08;57.10;;;20.00;;
51636;SDS011;37713;53.254;6.460;2022-12-18T07:23:35;49.15;;;19.83;;
51636;SDS011;37713;53.254;6.460;2022-12-18T07:26:08;56.58;;;19.27;;
51636;SDS011;37713;53.254;6.460;2022-12-18T07:28:38;53.65;;;19.15;;
51636;SDS011;37713;53.254;6.460;2022-12-18T07:31:12;51.05;;;18.63;;
51636;SDS011;37713;53.254;6.460;2022-12-18T07:33:40;51.35;;;19.98;;
51636;SDS011;37713;53.254;6.460;2022-12-18T07:36:07;53.95;;;18.85;;
51636;SDS011;37713;53.254;6.460;2022-12-18T07:38:34;48.92;;;19.20;;
51636;SDS011;37713;53.254;6.460;2022-12-18T07:41:02;51.63;;;19.23;;
51636;SDS011;37713;53.254;6.460;2022-12-18T07:43:28;47.95;;;18.65;;
51636;SDS011;37713;53.254;6.460;2022-12-18T07:45:54;44.17;;;18.02;;
51636;SDS011;37713;53.254;6.460;2022-12-18T07:48:20;41.22;;;18.02;;
51636;SDS011;37713;53.254;6.460;2022-12-18T07:50:46;50.92;;;18.58;;
51636;SDS011;37713;53.254;6.460;2022-12-18T07:53:12;43.97;;;17.10;;
51636;SDS011;37713;53.254;6.460;2022-12-18T07:55:39;47.20;;;18.58;;
51636;SDS011;37713;53.254;6.460;2022-12-18T07:58:06;51.72;;;18.08;;
51636;SDS011;37713;53.254;6.460;2022-12-18T08:00:33;48.85;;;17.70;;
51636;SDS011;37713;53.254;6.460;2022-12-18T08:02:59;45.75;;;17.77;;
51636;SDS011;37713;53.254;6.460;2022-12-18T08:05:25;42.88;;;16.83;;
51636;SDS011;37713;53.254;6.460;2022-12-18T08:07:51;44.20;;;18.15;;
51636;SDS011;37713;53.254;6.460;2022-12-18T08:10:18;51.20;;;18.80;;
51636;SDS011;37713;53.254;6.460;2022-12-18T08:12:44;47.38;;;17.95;;
51636;SDS011;37713;53.254;6.460;2022-12-18T08:15:10;49.53;;;19.75;;
51636;SDS011;37713;53.254;6.460;2022-12-18T08:17:36;46.17;;;18.02;;
51636;SDS011;37713;53.254;6.460;2022-12-18T08:20:02;44.58;;;17.98;;
51636;SDS011;37713;53.254;6.460;2022-12-18T08:22:28;44.70;;;18.30;;
51636;SDS011;37713;53.254;6.460;2022-12-18T08:24:54;38.88;;;16.77;;
51636;SDS011;37713;53.254;6.460;2022-12-18T08:27:20;44.63;;;19.30;;
51636;SDS011;37713;53.254;6.460;2022-12-18T08:29:45;45.83;;;17.85;;
51636;SDS011;37713;53.254;6.460;2022-12-18T08:32:11;43.40;;;17.55;;
51636;SDS011;37713;53.254;6.460;2022-12-18T08:34:37;42.10;;;17.40;;
51636;SDS011;37713;53.254;6.460;2022-12-18T08:37:03;44.60;;;17.02;;
51636;SDS011;37713;53.254;6.460;2022-12-18T08:39:29;42.25;;;18.20;;
51636;SDS011;37713;53.254;6.460;2022-12-18T08:41:54;48.05;;;19.33;;
51636;SDS011;37713;53.254;6.460;2022-12-18T08:44:38;45.10;;;19.80;;
51636;SDS011;37713;53.254;6.460;2022-12-18T08:47:05;40.10;;;17.85;;
51636;SDS011;37713;53.254;6.460;2022-12-18T08:49:31;43.25;;;17.90;;
51636;SDS011;37713;53.254;6.460;2022-12-18T08:51:57;41.58;;;17.38;;
51636;SDS011;37713;53.254;6.460;2022-12-18T08:54:24;46.55;;;18.77;;
51636;SDS011;37713;53.254;6.460;2022-12-18T08:56:50;41.58;;;19.02;;
51636;SDS011;37713;53.254;6.460;2022-12-18T08:59:16;39.65;;;18.13;;
51636;SDS011;37713;53.254;6.460;2022-12-18T09:01:43;38.50;;;17.73;;
51636;SDS011;37713;53.254;6.460;2022-12-18T09:04:09;43.97;;;18.55;;
51636;SDS011;37713;53.254;6.460;2022-12-18T09:06:35;37.95;;;17.30;;
51636;SDS011;37713;53.254;6.460;2022-12-18T09:09:02;43.63;;;18.17;;
51636;SDS011;37713;53.254;6.460;2022-12-18T09:11:29;40.10;;;17.80;;
51636;SDS011;37713;53.254;6.460;2022-12-18T09:13:55;43.50;;;18.05;;
51636;SDS011;37713;53.254;6.460;2022-12-18T09:16:22;39.03;;;16.38;;
51636;SDS011;37713;53.254;6.460;2022-12-18T09:18:49;40.00;;;17.08;;
51636;SDS011;37713;53.254;6.460;2022-12-18T09:21:19;36.60;;;16.17;;
51636;SDS011;37713;53.254;6.460;2022-12-18T09:23:49;38.10;;;16.58;;
51636;SDS011;37713;53.254;6.460;2022-12-18T09:26:16;46.78;;;22.42;;
51636;SDS011;37713;53.254;6.460;2022-12-18T09:28:42;39.35;;;17.58;;
51636;SDS011;37713;53.254;6.460;2022-12-18T09:31:08;37.47;;;16.77;;
51636;SDS011;37713;53.254;6.460;2022-12-18T09:33:35;41.80;;;18.17;;
51636;SDS011;37713;53.254;6.460;2022-12-18T09:36:03;35.60;;;17.55;;
51636;SDS011;37713;53.254;6.460;2022-12-18T09:38:30;37.95;;;16.45;;
51636;SDS011;37713;53.254;6.460;2022-12-18T09:41:00;36.90;;;16.35;;
51636;SDS011;37713;53.254;6.460;2022-12-18T09:43:47;35.20;;;16.92;;
51636;SDS011;37713;53.254;6.460;2022-12-18T09:46:17;38.55;;;16.83;;
51636;SDS011;37713;53.254;6.460;2022-12-18T09:48:50;33.30;;;15.70;;
51636;SDS011;37713;53.254;6.460;2022-12-18T09:51:21;26.42;;;11.70;;
51636;SDS011;37713;53.254;6.460;2022-12-18T09:53:55;33.55;;;14.82;;
51636;SDS011;37713;53.254;6.460;2022-12-18T09:56:25;31.85;;;15.02;;
51636;SDS011;37713;53.254;6.460;2022-12-18T09:58:59;34.00;;;16.73;;
51636;SDS011;37713;53.254;6.460;2022-12-18T10:01:26;30.15;;;13.63;;
51636;SDS011;37713;53.254;6.460;2022-12-18T10:03:54;31.42;;;13.63;;
51636;SDS011;37713;53.254;6.460;2022-12-18T10:19:58;29.23;;;15.02;;
51636;SDS011;37713;53.254;6.460;2022-12-18T10:25:25;29.75;;;13.82;;
51636;SDS011;37713;53.254;6.460;2022-12-18T10:28:00;31.98;;;13.93;;
51636;SDS011;37713;53.254;6.460;2022-12-18T10:30:36;38.55;;;13.95;;
51636;SDS011;37713;53.254;6.460;2022-12-18T10:33:04;28.85;;;13.82;;
51636;SDS011;37713;53.254;6.460;2022-12-18T10:35:30;28.95;;;13.38;;
51636;SDS011;37713;53.254;6.460;2022-12-18T10:38:06;32.05;;;13.45;;
51636;SDS011;37713;53.254;6.460;2022-12-18T10:43:21;27.45;;;13.32;;
51636;SDS011;37713;53.254;6.460;2022-12-18T10:46:07;28.98;;;13.25;;
51636;SDS011;37713;53.254;6.460;2022-12-18T10:48:55;27.92;;;13.32;;
51636;SDS011;37713;53.254;6.460;2022-12-18T10:53:57;30.63;;;12.75;;
51636;SDS011;37713;53.254;6.460;2022-12-18T10:56:29;26.42;;;13.35;;
51636;SDS011;37713;53.254;6.460;2022-12-18T10:59:01;22.80;;;11.13;;
51636;SDS011;37713;53.254;6.460;2022-12-18T11:01:46;21.50;;;11.80;;
51636;SDS011;37713;53.254;6.460;2022-12-18T11:04:23;25.25;;;11.60;;
51636;SDS011;37713;53.254;6.460;2022-12-18T11:09:31;23.42;;;11.02;;
51636;SDS011;37713;53.254;6.460;2022-12-18T11:12:17;20.00;;;10.23;;
51636;SDS011;37713;53.254;6.460;2022-12-18T11:14:48;18.20;;;9.77;;
51636;SDS011;37713;53.254;6.460;2022-12-18T11:17:37;18.13;;;9.13;;
51636;SDS011;37713;53.254;6.460;2022-12-18T11:20:23;19.73;;;9.73;;
51636;SDS011;37713;53.254;6.460;2022-12-18T11:25:29;22.80;;;10.77;;
51636;SDS011;37713;53.254;6.460;2022-12-18T11:28:04;19.27;;;9.95;;
51636;SDS011;37713;53.254;6.460;2022-12-18T11:30:50;19.17;;;9.10;;
51636;SDS011;37713;53.254;6.460;2022-12-18T11:33:37;20.08;;;9.50;;
51636;SDS011;37713;53.254;6.460;2022-12-18T11:36:07;18.10;;;8.38;;
51636;SDS011;37713;53.254;6.460;2022-12-18T11:38:35;17.45;;;8.75;;
51636;SDS011;37713;53.254;6.460;2022-12-18T11:41:09;19.15;;;9.05;;
51636;SDS011;37713;53.254;6.460;2022-12-18T11:48:58;15.30;;;8.25;;
51636;SDS011;37713;53.254;6.460;2022-12-18T11:51:32;17.63;;;8.25;;
51636;SDS011;37713;53.254;6.460;2022-12-18T11:54:14;15.73;;;7.57;;
51636;SDS011;37713;53.254;6.460;2022-12-18T11:57:05;14.65;;;8.05;;
51636;SDS011;37713;53.254;6.460;2022-12-18T12:21:55;14.48;;;6.53;;
51636;SDS011;37713;53.254;6.460;2022-12-18T12:40:33;14.95;;;6.85;;
51636;SDS011;37713;53.254;6.460;2022-12-18T12:43:03;14.95;;;6.95;;
51636;SDS011;37713;53.254;6.460;2022-12-18T12:45:42;13.88;;;6.72;;
51636;SDS011;37713;53.254;6.460;2022-12-18T12:48:32;14.23;;;7.25;;
51636;SDS011;37713;53.254;6.460;2022-12-18T12:51:10;13.52;;;6.88;;
51636;SDS011;37713;53.254;6.460;2022-12-18T12:53:40;14.63;;;7.13;;
51636;SDS011;37713;53.254;6.460;2022-12-18T12:56:07;14.88;;;7.10;;
51636;SDS011;37713;53.254;6.460;2022-12-18T13:07:03;14.50;;;6.28;;
51636;SDS011;37713;53.254;6.460;2022-12-18T13:18:18;12.45;;;6.25;;
51636;SDS011;37713;53.254;6.460;2022-12-18T13:21:34;11.48;;;5.55;;
51636;SDS011;37713;53.254;6.460;2022-12-18T13:23:43;10.52;;;5.38;;
51636;SDS011;37713;53.254;6.460;2022-12-18T13:31:13;11.10;;;5.43;;
51636;SDS011;37713;53.254;6.460;2022-12-18T13:36:47;13.20;;;6.00;;
51636;SDS011;37713;53.254;6.460;2022-12-18T13:41:39;12.07;;;5.65;;
51636;SDS011;37713;53.254;6.460;2022-12-18T13:44:13;12.00;;;5.60;;
51636;SDS011;37713;53.254;6.460;2022-12-18T13:46:49;14.05;;;5.97;;
51636;SDS011;37713;53.254;6.460;2022-12-18T13:51:54;13.38;;;6.35;;
51636;SDS011;37713;53.254;6.460;2022-12-18T13:54:32;13.15;;;6.28;;
51636;SDS011;37713;53.254;6.460;2022-12-18T13:57:01;11.90;;;6.03;;
51636;SDS011;37713;53.254;6.460;2022-12-18T13:59:34;12.48;;;6.28;;
51636;SDS011;37713;53.254;6.460;2022-12-18T14:02:17;13.35;;;6.25;;
51636;SDS011;37713;53.254;6.460;2022-12-18T14:04:47;14.30;;;6.18;;
51636;SDS011;37713;53.254;6.460;2022-12-18T14:07:15;12.93;;;6.18;;
51636;SDS011;37713;53.254;6.460;2022-12-18T14:09:48;13.95;;;6.90;;
51636;SDS011;37713;53.254;6.460;2022-12-18T14:12:21;12.68;;;6.30;;
51636;SDS011;37713;53.254;6.460;2022-12-18T14:20:48;12.80;;;5.63;;
51636;SDS011;37713;53.254;6.460;2022-12-18T14:23:29;12.45;;;5.97;;
51636;SDS011;37713;53.254;6.460;2022-12-18T14:26:00;11.90;;;5.75;;
51636;SDS011;37713;53.254;6.460;2022-12-18T14:28:28;14.98;;;6.43;;
51636;SDS011;37713;53.254;6.460;2022-12-18T14:30:54;12.93;;;6.65;;
51636;SDS011;37713;53.254;6.460;2022-12-18T14:33:25;13.82;;;6.38;;
51636;SDS011;37713;53.254;6.460;2022-12-18T14:35:56;15.43;;;6.57;;
51636;SDS011;37713;53.254;6.460;2022-12-18T14:38:28;15.02;;;6.72;;
51636;SDS011;37713;53.254;6.460;2022-12-18T14:41:11;15.10;;;6.78;;
51636;SDS011;37713;53.254;6.460;2022-12-18T14:43:39;13.35;;;6.15;;
51636;SDS011;37713;53.254;6.460;2022-12-18T14:48:53;13.13;;;6.50;;
51636;SDS011;37713;53.254;6.460;2022-12-18T14:51:26;15.27;;;6.63;;
51636;SDS011;37713;53.254;6.460;2022-12-18T14:53:57;14.50;;;6.70;;
51636;SDS011;37713;53.254;6.460;2022-12-18T14:56:35;16.38;;;7.13;;
51636;SDS011;37713;53.254;6.460;2022-12-18T14:59:21;16.65;;;7.38;;
51636;SDS011;37713;53.254;6.460;2022-12-18T15:04:37;14.43;;;6.80;;
51636;SDS011;37713;53.254;6.460;2022-12-18T15:07:18;13.52;;;6.93;;
51636;SDS011;37713;53.254;6.460;2022-12-18T15:10:04;13.68;;;6.72;;
51636;SDS011;37713;53.254;6.460;2022-12-18T15:12:43;15.27;;;6.85;;
51636;SDS011;37713;53.254;6.460;2022-12-18T15:15:46;13.75;;;6.80;;
51636;SDS011;37713;53.254;6.460;2022-12-18T15:23:31;15.18;;;7.85;;
51636;SDS011;37713;53.254;6.460;2022-12-18T15:26:00;21.42;;;9.75;;
51636;SDS011;37713;53.254;6.460;2022-12-18T15:28:38;16.20;;;8.30;;
51636;SDS011;37713;53.254;6.460;2022-12-18T15:33:38;15.48;;;7.43;;
51636;SDS011;37713;53.254;6.460;2022-12-18T15:36:12;15.15;;;7.78;;
51636;SDS011;37713;53.254;6.460;2022-12-18T15:38:39;15.38;;;8.05;;
51636;SDS011;37713;53.254;6.460;2022-12-18T15:41:05;16.00;;;7.88;;
51636;SDS011;37713;53.254;6.460;2022-12-18T15:43:34;17.08;;;8.05;;
51636;SDS011;37713;53.254;6.460;2022-12-18T15:46:08;17.10;;;7.93;;
51636;SDS011;37713;53.254;6.460;2022-12-18T15:48:39;17.83;;;8.32;;
51636;SDS011;37713;53.254;6.460;2022-12-18T15:51:11;16.83;;;8.00;;
51636;SDS011;37713;53.254;6.460;2022-12-18T15:53:39;16.42;;;8.02;;
51636;SDS011;37713;53.254;6.460;2022-12-18T15:56:07;15.90;;;8.05;;
51636;SDS011;37713;53.254;6.460;2022-12-18T15:58:54;12.73;;;6.28;;
51636;SDS011;37713;53.254;6.460;2022-12-18T16:01:20;17.25;;;8.48;;
51636;SDS011;37713;53.254;6.460;2022-12-18T16:03:47;16.85;;;8.45;;
51636;SDS011;37713;53.254;6.460;2022-12-18T16:06:13;17.08;;;8.55;;
51636;SDS011;37713;53.254;6.460;2022-12-18T16:08:39;15.43;;;8.30;;
51636;SDS011;37713;53.254;6.460;2022-12-18T16:11:05;19.27;;;9.35;;
51636;SDS011;37713;53.254;6.460;2022-12-18T16:13:31;16.55;;;8.43;;
51636;SDS011;37713;53.254;6.460;2022-12-18T16:15:56;17.63;;;8.90;;
51636;SDS011;37713;53.254;6.460;2022-12-18T16:18:22;17.40;;;8.45;;
51636;SDS011;37713;53.254;6.460;2022-12-18T16:20:48;16.52;;;8.35;;
51636;SDS011;37713;53.254;6.460;2022-12-18T16:23:15;16.02;;;8.57;;
51636;SDS011;37713;53.254;6.460;2022-12-18T16:25:41;15.25;;;8.13;;
51636;SDS011;37713;53.254;6.460;2022-12-18T16:28:07;16.52;;;8.25;;
51636;SDS011;37713;53.254;6.460;2022-12-18T16:30:32;17.20;;;9.00;;
51636;SDS011;37713;53.254;6.460;2022-12-18T16:32:59;19.33;;;9.98;;
51636;SDS011;37713;53.254;6.460;2022-12-18T16:35:25;18.33;;;8.60;;
51636;SDS011;37713;53.254;6.460;2022-12-18T16:37:51;17.50;;;9.23;;
51636;SDS011;37713;53.254;6.460;2022-12-18T16:40:18;16.58;;;9.20;;
51636;SDS011;37713;53.254;6.460;2022-12-18T16:42:44;21.02;;;9.05;;
51636;SDS011;37713;53.254;6.460;2022-12-18T16:45:12;17.33;;;9.20;;
51636;SDS011;37713;53.254;6.460;2022-12-18T16:47:40;16.95;;;9.05;;
51636;SDS011;37713;53.254;6.460;2022-12-18T16:50:06;19.25;;;9.45;;
51636;SDS011;37713;53.254;6.460;2022-12-18T16:52:33;19.70;;;9.25;;
51636;SDS011;37713;53.254;6.460;2022-12-18T16:54:59;18.30;;;9.02;;
51636;SDS011;37713;53.254;6.460;2022-12-18T16:57:25;17.73;;;9.18;;
51636;SDS011;37713;53.254;6.460;2022-12-18T16:59:51;18.35;;;8.95;;
51636;SDS011;37713;53.254;6.460;2022-12-18T17:02:18;18.63;;;9.55;;
51636;SDS011;37713;53.254;6.460;2022-12-18T17:04:46;18.90;;;9.57;;
51636;SDS011;37713;53.254;6.460;2022-12-18T17:07:12;21.45;;;10.07;;
51636;SDS011;37713;53.254;6.460;2022-12-18T17:09:38;19.92;;;11.15;;
51636;SDS011;37713;53.254;6.460;2022-12-18T17:12:04;18.02;;;9.13;;